createdAt,value
2018-04-30T00:02:15.429Z,17.70
2018-04-30T00:04:43.003Z,17.80
2018-04-30T00:07:10.558Z,17.90
2018-04-30T00:09:38.113Z,18.00
2018-04-30T00:12:05.698Z,18.00
2018-04-30T00:14:33.226Z,18.00
2018-04-30T00:17:00.800Z,18.00
2018-04-30T00:19:28.348Z,17.90
2018-04-30T00:21:55.919Z,17.90
2018-04-30T00:24:23.464Z,17.90
2018-04-30T00:26:51.023Z,17.80
2018-04-30T00:29:18.564Z,17.70
2018-04-30T00:31:46.899Z,17.70
2018-04-30T00:34:14.439Z,17.70
2018-04-30T00:36:42.006Z,17.60
2018-04-30T00:39:09.555Z,17.70
2018-04-30T00:41:37.132Z,17.70
2018-04-30T00:44:04.672Z,17.70
2018-04-30T00:46:32.236Z,17.80
2018-04-30T00:48:59.791Z,17.80
2018-04-30T00:51:27.361Z,17.70
2018-04-30T00:53:54.906Z,17.80
2018-04-30T00:56:22.480Z,17.80
2018-04-30T00:58:50.031Z,17.80
2018-04-30T01:01:17.591Z,17.80
2018-04-30T01:03:45.134Z,17.90
2018-04-30T01:06:12.695Z,17.90
2018-04-30T01:08:40.245Z,17.80
2018-04-30T01:11:07.812Z,17.80
2018-04-30T01:13:35.372Z,17.80
2018-04-30T01:16:02.947Z,17.70
2018-04-30T01:18:30.484Z,17.70
2018-04-30T01:20:58.028Z,17.70
2018-04-30T01:23:26.359Z,17.50
2018-04-30T01:25:53.900Z,17.50
2018-04-30T01:28:21.468Z,17.60
2018-04-30T01:30:49.023Z,17.40
2018-04-30T01:33:16.590Z,17.40
2018-04-30T01:35:44.121Z,17.30
2018-04-30T01:38:11.676Z,17.20
2018-04-30T01:40:39.219Z,17.10
2018-04-30T01:43:07.535Z,16.90
2018-04-30T01:45:35.063Z,16.90
2018-04-30T01:48:03.403Z,16.80
2018-04-30T01:50:30.947Z,16.80
2018-04-30T01:52:58.517Z,16.60
2018-04-30T01:55:26.055Z,16.50
2018-04-30T01:57:53.617Z,16.50
2018-04-30T02:00:21.171Z,16.40
2018-04-30T02:02:49.756Z,16.40
2018-04-30T02:05:17.318Z,16.40
2018-04-30T02:07:44.887Z,16.20
2018-04-30T02:10:12.431Z,16.10
2018-04-30T02:12:40.019Z,16.10
2018-04-30T02:15:07.549Z,16.00
2018-04-30T02:17:35.112Z,16.00
2018-04-30T02:20:02.651Z,15.80
2018-04-30T02:22:30.229Z,15.70
2018-04-30T02:24:57.784Z,15.70
2018-04-30T02:27:25.343Z,15.60
2018-04-30T02:29:52.884Z,15.50
2018-04-30T02:32:20.466Z,15.50
2018-04-30T02:34:48.015Z,15.30
2018-04-30T02:37:15.586Z,15.30
2018-04-30T02:39:43.132Z,15.20
2018-04-30T02:42:10.692Z,15.20
2018-04-30T02:44:38.245Z,15.10
2018-04-30T02:47:05.777Z,15.10
2018-04-30T02:49:34.103Z,15.10
2018-04-30T02:52:01.654Z,15.00
2018-04-30T02:54:29.221Z,15.00
2018-04-30T02:56:56.751Z,14.90
2018-04-30T02:59:24.326Z,14.90
2018-04-30T03:01:51.879Z,14.90
2018-04-30T03:04:19.444Z,14.90
2018-04-30T03:06:46.989Z,14.90
2018-04-30T03:09:15.319Z,14.80
2018-04-30T03:11:42.872Z,14.80
2018-04-30T03:14:10.441Z,14.80
2018-04-30T03:16:37.997Z,14.80
2018-04-30T03:19:05.634Z,14.70
2018-04-30T03:21:33.180Z,14.70
2018-04-30T03:24:00.742Z,14.60
2018-04-30T03:26:28.282Z,14.50
2018-04-30T03:28:56.602Z,14.40
2018-04-30T03:31:24.157Z,14.30
2018-04-30T03:33:51.724Z,14.20
2018-04-30T03:36:19.272Z,14.20
2018-04-30T03:38:46.826Z,14.00
2018-04-30T03:41:14.387Z,14.10
2018-04-30T03:43:41.946Z,13.90
2018-04-30T03:46:09.579Z,13.90
2018-04-30T03:48:37.245Z,13.80
2018-04-30T03:51:04.905Z,13.70
2018-04-30T03:53:32.605Z,13.80
2018-04-30T03:56:00.158Z,13.80
2018-04-30T03:58:27.720Z,13.80
2018-04-30T04:01:07.215Z,13.80
2018-04-30T04:03:47.350Z,13.50
2018-04-30T04:09:23.487Z,13.40
2018-04-30T04:11:51.030Z,13.40
2018-04-30T04:14:18.603Z,13.30
2018-04-30T04:16:46.135Z,13.30
2018-04-30T04:19:14.466Z,13.20
2018-04-30T04:21:42.007Z,13.20
2018-04-30T04:24:09.578Z,13.20
2018-04-30T04:26:37.127Z,13.10
2018-04-30T04:29:04.695Z,13.20
2018-04-30T04:31:32.239Z,13.20
2018-04-30T04:33:59.799Z,13.10
2018-04-30T04:36:27.344Z,13.10
2018-04-30T04:38:54.903Z,13.10
2018-04-30T04:41:22.478Z,13.10
2018-04-30T04:43:50.019Z,13.10
2018-04-30T04:46:17.666Z,13.10
2018-04-30T04:48:45.247Z,13.10
2018-04-30T04:51:12.818Z,13.10
2018-04-30T04:53:40.363Z,13.10
2018-04-30T04:56:07.935Z,13.10
2018-04-30T04:58:35.479Z,13.10
2018-04-30T05:01:03.057Z,13.10
2018-04-30T05:03:30.599Z,13.20
2018-04-30T05:05:58.174Z,13.10
2018-04-30T05:08:25.701Z,13.20
2018-04-30T05:10:54.099Z,13.20
2018-04-30T05:13:21.591Z,13.20
2018-04-30T05:15:49.160Z,13.20
2018-04-30T05:18:16.705Z,13.20
2018-04-30T05:20:44.266Z,13.20
2018-04-30T05:23:11.804Z,13.20
2018-04-30T05:25:39.371Z,13.30
2018-04-30T05:28:06.921Z,13.30
2018-04-30T05:30:34.487Z,13.30
2018-04-30T05:33:02.026Z,13.30
2018-04-30T05:35:29.594Z,13.30
2018-04-30T05:37:57.138Z,13.30
2018-04-30T05:40:25.470Z,13.30
2018-04-30T05:42:53.790Z,13.50
2018-04-30T05:45:22.119Z,13.50
2018-04-30T05:47:49.653Z,13.40
2018-04-30T05:50:17.221Z,13.40
2018-04-30T05:52:44.767Z,13.40
2018-04-30T05:55:12.377Z,13.50
2018-04-30T05:57:39.891Z,13.50
2018-04-30T06:00:07.462Z,13.50
2018-04-30T06:02:35.001Z,13.50
2018-04-30T06:05:02.538Z,13.40
2018-04-30T06:07:30.874Z,13.60
2018-04-30T06:09:58.419Z,13.60
2018-04-30T06:12:25.983Z,13.70
2018-04-30T06:14:53.519Z,13.90
2018-04-30T06:17:21.085Z,13.90
2018-04-30T06:19:48.612Z,14.00
2018-04-30T06:22:16.939Z,14.30
2018-04-30T06:24:44.470Z,14.30
2018-04-30T06:27:12.058Z,14.50
2018-04-30T06:29:39.600Z,14.50
2018-04-30T06:32:07.168Z,14.60
2018-04-30T06:34:34.702Z,14.70
2018-04-30T06:37:02.267Z,14.60
2018-04-30T06:39:29.812Z,14.60
2018-04-30T06:41:58.160Z,14.30
2018-04-30T06:44:25.693Z,14.30
2018-04-30T06:46:53.268Z,14.20
2018-04-30T06:49:20.806Z,14.30
2018-04-30T06:51:48.368Z,14.20
2018-04-30T06:54:15.906Z,14.30
2018-04-30T06:56:43.486Z,14.30
2018-04-30T06:59:11.029Z,14.40
2018-04-30T07:01:38.594Z,14.50
2018-04-30T07:04:06.121Z,14.50
2018-04-30T07:06:34.451Z,14.60
2018-04-30T07:09:02.041Z,14.60
2018-04-30T07:11:29.585Z,14.70
2018-04-30T07:13:57.130Z,14.70
2018-04-30T07:16:24.689Z,14.80
2018-04-30T07:18:52.213Z,14.80
2018-04-30T07:21:19.780Z,14.90
2018-04-30T07:23:47.319Z,15.10
2018-04-30T07:26:15.624Z,15.30
2018-04-30T07:28:43.194Z,15.20
2018-04-30T07:31:10.735Z,15.40
2018-04-30T07:33:38.301Z,15.40
2018-04-30T07:36:05.850Z,15.50
2018-04-30T07:38:33.407Z,15.60
2018-04-30T07:41:00.937Z,15.60
2018-04-30T07:43:29.262Z,15.80
2018-04-30T07:45:56.793Z,15.70
2018-04-30T07:48:24.363Z,15.90
2018-04-30T07:50:51.920Z,16.00
2018-04-30T07:53:19.487Z,15.90
2018-04-30T07:55:47.021Z,15.90
2018-04-30T07:58:15.353Z,16.20
2018-04-30T08:00:42.900Z,16.20
2018-04-30T08:03:10.534Z,16.30
2018-04-30T08:05:38.043Z,16.40
2018-04-30T08:08:05.607Z,16.50
2018-04-30T08:10:33.155Z,16.70
2018-04-30T08:13:00.715Z,16.90
2018-04-30T08:15:28.271Z,17.00
2018-04-30T08:17:55.843Z,17.10
2018-04-30T08:20:23.400Z,17.20
2018-04-30T08:22:50.975Z,17.30
2018-04-30T08:25:19.292Z,17.30
2018-04-30T08:27:46.853Z,17.30
2018-04-30T08:30:14.396Z,17.30
2018-04-30T08:32:41.972Z,17.30
2018-04-30T08:35:09.522Z,17.40
2018-04-30T08:37:37.100Z,17.40
2018-04-30T08:40:04.630Z,17.40
2018-04-30T08:42:32.966Z,17.20
2018-04-30T08:45:00.517Z,17.20
2018-04-30T08:47:28.077Z,17.40
2018-04-30T08:49:55.648Z,17.60
2018-04-30T08:52:23.194Z,17.80
2018-04-30T08:54:50.768Z,17.80
2018-04-30T08:57:18.311Z,17.80
2018-04-30T08:59:45.879Z,17.80
2018-04-30T09:02:13.426Z,17.90
2018-04-30T09:04:40.995Z,18.10
2018-04-30T09:07:08.549Z,18.20
2018-04-30T09:09:36.122Z,18.40
2018-04-30T09:12:03.687Z,18.20
2018-04-30T09:14:31.254Z,18.20
2018-04-30T09:16:58.798Z,18.50
2018-04-30T09:19:26.367Z,18.60
2018-04-30T09:21:53.926Z,18.40
2018-04-30T09:24:21.491Z,18.40
2018-04-30T09:26:49.029Z,18.40
2018-04-30T09:29:16.596Z,18.40
2018-04-30T09:31:44.144Z,18.50
2018-04-30T09:34:11.713Z,18.60
2018-04-30T09:36:39.256Z,18.80
2018-04-30T09:39:06.810Z,18.90
2018-04-30T09:41:34.346Z,18.70
2018-04-30T09:44:01.927Z,18.50
2018-04-30T09:46:29.471Z,18.50
2018-04-30T09:48:57.035Z,18.60
2018-04-30T09:51:24.569Z,18.80
2018-04-30T09:53:52.897Z,19.30
2018-04-30T09:56:20.450Z,19.30
2018-04-30T09:58:48.017Z,19.50
2018-04-30T10:01:15.562Z,19.60
2018-04-30T10:03:43.092Z,19.30
2018-04-30T10:06:11.424Z,19.40
2018-04-30T10:08:38.958Z,19.40
2018-04-30T10:11:06.519Z,19.60
2018-04-30T10:13:34.061Z,19.90
2018-04-30T10:16:01.633Z,19.80
2018-04-30T10:18:29.188Z,20.00
2018-04-30T10:20:56.754Z,20.20
2018-04-30T10:23:24.353Z,20.10
2018-04-30T10:25:51.886Z,20.20
2018-04-30T10:28:19.433Z,20.10
2018-04-30T10:30:47.006Z,20.10
2018-04-30T10:33:14.570Z,20.20
2018-04-30T10:35:42.128Z,20.20
2018-04-30T10:38:10.443Z,20.40
2018-04-30T10:40:38.779Z,20.70
2018-04-30T10:43:06.327Z,20.70
2018-04-30T10:45:33.894Z,20.60
2018-04-30T10:48:01.429Z,20.40
2018-04-30T10:50:29.003Z,20.60
2018-04-30T10:52:56.569Z,20.90
2018-04-30T10:55:24.141Z,21.10
2018-04-30T10:57:51.684Z,20.90
2018-04-30T11:00:19.260Z,21.00
2018-04-30T11:02:46.803Z,20.60
2018-04-30T11:05:14.372Z,20.30
2018-04-30T11:07:41.924Z,20.10
2018-04-30T11:10:09.492Z,20.20
2018-04-30T11:12:37.043Z,20.20
2018-04-30T11:15:04.619Z,20.50
2018-04-30T11:17:32.160Z,20.80
2018-04-30T11:20:00.350Z,21.00
2018-04-30T11:22:27.919Z,21.20
2018-04-30T11:24:55.465Z,21.40
2018-04-30T11:27:23.031Z,21.40
2018-04-30T11:29:50.580Z,21.70
2018-04-30T11:32:18.148Z,21.70
2018-04-30T11:34:45.698Z,21.40
2018-04-30T11:37:13.283Z,21.30
2018-04-30T11:39:41.618Z,21.20
2018-04-30T11:42:09.210Z,21.20
2018-04-30T11:44:36.762Z,21.30
2018-04-30T11:47:04.429Z,21.40
2018-04-30T11:49:32.675Z,22.10
2018-04-30T11:52:00.260Z,22.00
2018-04-30T11:54:27.811Z,22.20
2018-04-30T11:56:55.386Z,22.00
2018-04-30T11:59:22.935Z,22.00
2018-04-30T12:01:50.518Z,22.10
2018-04-30T12:04:18.857Z,22.40
2018-04-30T12:06:46.429Z,22.30
2018-04-30T12:09:13.971Z,22.50
2018-04-30T12:11:41.567Z,22.50
2018-04-30T12:14:09.126Z,22.70
2018-04-30T12:16:36.729Z,22.60
2018-04-30T12:19:04.302Z,22.40
2018-04-30T12:21:31.882Z,22.40
2018-04-30T12:23:59.446Z,22.20
2018-04-30T12:26:27.032Z,22.40
2018-04-30T12:28:54.589Z,22.70
2018-04-30T12:31:22.175Z,22.70
2018-04-30T12:33:49.751Z,22.60
2018-04-30T12:36:17.306Z,22.60
2018-04-30T12:38:44.887Z,22.70
2018-04-30T12:41:12.447Z,22.80
2018-04-30T12:43:40.072Z,22.80
2018-04-30T12:46:07.585Z,22.80
2018-04-30T12:48:35.922Z,22.90
2018-04-30T12:51:03.479Z,22.90
2018-04-30T12:53:31.822Z,22.80
2018-04-30T12:55:59.448Z,22.80
2018-04-30T12:58:27.727Z,22.80
2018-04-30T13:00:55.291Z,22.80
2018-04-30T13:03:22.886Z,22.70
2018-04-30T13:05:51.212Z,22.30
2018-04-30T13:08:18.791Z,22.30
2018-04-30T13:10:46.361Z,22.40
2018-04-30T13:13:13.938Z,22.20
2018-04-30T13:15:41.504Z,22.00
2018-04-30T13:18:09.856Z,22.20
2018-04-30T13:20:37.407Z,22.20
2018-04-30T13:23:04.979Z,22.00
2018-04-30T13:25:32.538Z,22.00
2018-04-30T13:28:00.111Z,22.30
2018-04-30T13:30:27.660Z,22.50
2018-04-30T13:32:55.225Z,22.60
2018-04-30T13:35:22.773Z,22.60
2018-04-30T13:37:50.427Z,22.80
2018-04-30T13:40:18.052Z,22.80
2018-04-30T13:42:45.704Z,22.80
2018-04-30T13:45:13.360Z,22.70
2018-04-30T13:47:41.776Z,22.00
2018-04-30T13:50:09.400Z,22.00
2018-04-30T13:52:37.027Z,22.00
2018-04-30T13:55:04.596Z,22.00
2018-04-30T13:57:32.161Z,22.20
2018-04-30T13:59:59.711Z,22.00
2018-04-30T14:02:27.257Z,22.00
2018-04-30T14:04:54.839Z,21.70
2018-04-30T14:07:22.377Z,21.40
2018-04-30T14:09:49.954Z,21.00
2018-04-30T14:12:17.512Z,21.00
2018-04-30T14:14:45.073Z,21.20
2018-04-30T14:17:12.620Z,21.10
2018-04-30T14:19:40.184Z,21.00
2018-04-30T14:22:07.727Z,21.20
2018-04-30T14:24:35.290Z,21.10
2018-04-30T14:27:02.825Z,20.90
2018-04-30T14:29:30.392Z,20.70
2018-04-30T14:31:57.935Z,20.50
2018-04-30T14:34:25.494Z,20.30
2018-04-30T14:36:53.043Z,20.10
2018-04-30T14:39:21.377Z,19.70
2018-04-30T14:41:48.921Z,19.70
2018-04-30T14:44:16.495Z,19.30
2018-04-30T14:46:44.050Z,19.00
2018-04-30T14:49:11.619Z,18.90
2018-04-30T14:51:39.155Z,18.70
2018-04-30T14:54:06.711Z,18.30
2018-04-30T14:56:34.261Z,18.10
2018-04-30T14:59:01.824Z,18.00
2018-04-30T15:01:29.375Z,18.00
2018-04-30T15:03:56.968Z,18.10
2018-04-30T15:06:24.514Z,18.10
2018-04-30T15:08:52.090Z,18.40
2018-04-30T15:11:19.635Z,18.80
2018-04-30T15:13:47.211Z,19.00
2018-04-30T15:16:14.760Z,19.30
2018-04-30T15:18:42.354Z,19.70
2018-04-30T15:21:09.885Z,19.90
2018-04-30T15:23:37.419Z,20.10
2018-04-30T15:26:04.969Z,20.20
2018-04-30T15:28:32.504Z,20.40
2018-04-30T15:31:00.843Z,21.00
2018-04-30T15:33:28.388Z,21.00
2018-04-30T15:35:56.022Z,21.30
2018-04-30T15:38:23.558Z,21.10
2018-04-30T15:40:51.892Z,20.90
2018-04-30T15:43:19.436Z,20.90
2018-04-30T15:45:47.009Z,20.70
2018-04-30T15:48:14.560Z,20.60
2018-04-30T15:50:42.130Z,20.60
2018-04-30T15:53:09.682Z,20.40
2018-04-30T15:55:37.261Z,20.30
2018-04-30T15:58:04.800Z,20.40
2018-04-30T16:00:32.377Z,20.40
2018-04-30T16:02:59.921Z,20.80
2018-04-30T16:05:27.497Z,21.20
2018-04-30T16:07:55.039Z,21.40
2018-04-30T16:10:22.615Z,21.10
2018-04-30T16:12:50.159Z,20.80
2018-04-30T16:15:17.724Z,20.60
2018-04-30T16:17:45.274Z,20.20
2018-04-30T16:20:12.876Z,19.90
2018-04-30T16:22:40.419Z,19.50
2018-04-30T16:25:07.986Z,19.10
2018-04-30T16:27:36.493Z,19.00
2018-04-30T16:30:04.814Z,18.10
2018-04-30T16:32:32.346Z,18.10
2018-04-30T16:35:00.675Z,17.70
2018-04-30T16:37:28.306Z,17.70
2018-04-30T16:39:55.907Z,17.60
2018-04-30T16:42:23.555Z,17.60
2018-04-30T16:44:51.180Z,17.50
2018-04-30T16:47:18.787Z,17.60
2018-04-30T16:49:46.323Z,17.70
2018-04-30T16:52:13.882Z,17.70
2018-04-30T16:54:41.428Z,17.80
2018-04-30T16:57:10.016Z,17.70
2018-04-30T16:59:37.562Z,17.70
2018-04-30T17:02:05.135Z,17.70
2018-04-30T17:04:32.684Z,17.70
2018-04-30T17:07:00.245Z,17.80
2018-04-30T17:09:27.792Z,17.90
2018-04-30T17:11:55.370Z,18.00
2018-04-30T17:14:22.906Z,18.10
2018-04-30T17:16:51.232Z,18.10
2018-04-30T17:19:18.775Z,18.00
2018-04-30T17:21:46.340Z,17.90
2018-04-30T17:24:13.935Z,17.80
2018-04-30T17:26:41.486Z,18.00
2018-04-30T17:29:09.047Z,18.40
2018-04-30T17:31:36.628Z,18.90
2018-04-30T17:34:04.940Z,19.70
2018-04-30T17:36:32.720Z,19.70
2018-04-30T17:39:00.288Z,19.80
2018-04-30T17:41:28.639Z,18.70
2018-04-30T17:43:56.180Z,18.70
2018-04-30T17:46:23.771Z,18.20
2018-04-30T17:48:51.301Z,17.80
2018-04-30T17:51:19.645Z,17.30
2018-04-30T17:53:47.187Z,17.30
2018-04-30T17:56:14.773Z,17.10
2018-04-30T17:58:43.177Z,16.80
2018-04-30T18:01:10.668Z,16.80
2018-04-30T18:03:38.210Z,16.70
2018-04-30T18:06:05.751Z,16.60
2018-04-30T18:08:33.341Z,16.50
2018-04-30T18:11:00.869Z,16.50
2018-04-30T18:13:29.197Z,16.30
2018-04-30T18:15:56.760Z,16.30
2018-04-30T18:18:24.322Z,16.20
2018-04-30T18:20:51.858Z,16.20
2018-04-30T18:23:19.417Z,16.20
2018-04-30T18:25:46.956Z,16.20
2018-04-30T18:28:14.536Z,16.10
2018-04-30T18:30:42.076Z,16.10
2018-04-30T18:33:09.641Z,16.10
2018-04-30T18:35:37.182Z,16.00
2018-04-30T18:38:04.751Z,16.00
2018-04-30T18:40:32.310Z,15.90
2018-04-30T18:42:59.896Z,15.90
2018-04-30T18:45:27.458Z,15.90
2018-04-30T18:47:55.029Z,15.90
2018-04-30T18:50:22.576Z,15.80
2018-04-30T18:52:50.155Z,15.90
2018-04-30T18:55:17.696Z,15.80
2018-04-30T18:57:45.266Z,15.80
2018-04-30T19:00:12.812Z,15.80
2018-04-30T19:02:40.423Z,15.70
2018-04-30T19:05:08.725Z,15.60
2018-04-30T19:07:36.284Z,15.60
2018-04-30T19:10:03.822Z,15.60
2018-04-30T19:12:32.155Z,15.40
2018-04-30T19:14:59.696Z,15.50
2018-04-30T19:17:27.260Z,15.40
2018-04-30T19:19:54.807Z,15.30
2018-04-30T19:22:22.383Z,15.20
2018-04-30T19:24:49.922Z,15.20
2018-04-30T19:27:17.480Z,15.10
2018-04-30T19:29:45.055Z,15.10
2018-04-30T19:32:12.591Z,15.00
2018-04-30T19:34:40.149Z,15.10
2018-04-30T19:37:07.738Z,15.20
2018-04-30T19:39:36.059Z,15.20
2018-04-30T19:42:03.584Z,15.10
2018-04-30T19:44:31.152Z,15.20
2018-04-30T19:46:58.702Z,15.20
2018-04-30T19:49:26.279Z,15.20
2018-04-30T19:51:53.820Z,15.20
2018-04-30T19:54:21.392Z,15.20
2018-04-30T19:56:48.926Z,15.30
2018-04-30T19:59:16.486Z,15.20
2018-04-30T20:01:44.034Z,15.30
2018-04-30T20:04:11.603Z,15.30
2018-04-30T20:06:39.139Z,15.30
2018-04-30T20:09:07.468Z,15.30
2018-04-30T20:11:34.999Z,15.30
2018-04-30T20:14:02.584Z,15.40
2018-04-30T20:16:30.124Z,15.30
2018-04-30T20:18:57.676Z,15.40
2018-04-30T20:21:25.223Z,15.30
2018-04-30T20:23:52.781Z,15.30
2018-04-30T20:26:20.319Z,15.20
2018-04-30T20:28:48.649Z,15.10
2018-04-30T20:31:16.195Z,15.10
2018-04-30T20:33:43.760Z,15.10
2018-04-30T20:36:11.310Z,15.10
2018-04-30T20:38:38.877Z,15.10
2018-04-30T20:41:06.419Z,15.10
2018-04-30T20:43:33.973Z,15.20
2018-04-30T20:46:01.536Z,15.20
2018-04-30T20:48:29.096Z,15.30
2018-04-30T20:50:56.675Z,15.30
2018-04-30T20:53:24.214Z,15.30
2018-04-30T20:55:51.786Z,15.30
2018-04-30T20:58:19.353Z,15.30
2018-04-30T21:00:46.905Z,15.30
2018-04-30T21:03:14.465Z,15.20
2018-04-30T21:05:42.108Z,15.20
2018-04-30T21:08:09.732Z,15.20
2018-04-30T21:10:38.120Z,15.20
2018-04-30T21:13:06.447Z,15.20
2018-04-30T21:15:34.017Z,15.20
2018-04-30T21:18:01.574Z,15.10
2018-04-30T21:20:29.147Z,15.10
2018-04-30T21:22:56.689Z,15.10
2018-04-30T21:25:24.316Z,15.10
2018-04-30T21:27:51.827Z,15.10
2018-04-30T21:30:19.377Z,15.10
2018-04-30T21:32:46.930Z,15.10
2018-04-30T21:35:14.495Z,15.10
2018-04-30T21:37:42.048Z,15.10
2018-04-30T21:40:09.645Z,15.10
2018-04-30T21:42:37.191Z,15.00
2018-04-30T21:45:04.751Z,14.90
2018-04-30T21:47:32.348Z,14.90
2018-04-30T21:49:59.875Z,14.80
2018-04-30T21:52:27.430Z,14.70
2018-04-30T21:54:54.990Z,14.50
2018-04-30T21:57:22.527Z,14.50
2018-04-30T21:59:50.075Z,14.40
2018-04-30T22:02:17.638Z,14.40
2018-04-30T22:04:45.225Z,14.40
2018-04-30T22:07:12.791Z,14.50
2018-04-30T22:09:40.333Z,14.50
2018-04-30T22:12:07.921Z,14.50
2018-04-30T22:14:35.471Z,14.50
2018-04-30T22:17:03.039Z,14.50
2018-04-30T22:19:30.585Z,14.60
2018-04-30T22:21:58.148Z,14.60
2018-04-30T22:24:25.701Z,14.60
2018-04-30T22:26:53.273Z,14.60
2018-04-30T22:29:20.822Z,14.70
2018-04-30T22:31:48.383Z,14.70
2018-04-30T22:34:15.925Z,14.70
2018-04-30T22:36:43.550Z,14.70
2018-04-30T22:39:11.059Z,14.60
2018-04-30T22:41:38.629Z,14.60
2018-04-30T22:44:06.179Z,14.60
2018-04-30T22:46:33.745Z,14.60
2018-04-30T22:49:01.295Z,14.60
2018-04-30T22:51:28.871Z,14.60
2018-04-30T22:53:56.412Z,14.50
2018-04-30T22:56:23.975Z,14.60
2018-04-30T22:58:51.517Z,14.50
2018-04-30T23:01:19.083Z,14.40
2018-04-30T23:03:46.627Z,14.40
2018-04-30T23:06:14.203Z,14.30
2018-04-30T23:08:41.746Z,14.30
2018-04-30T23:11:09.304Z,14.30
2018-04-30T23:13:36.840Z,14.30
2018-04-30T23:16:04.394Z,14.20
2018-04-30T23:18:32.700Z,14.20
2018-04-30T23:21:00.280Z,14.20
2018-04-30T23:23:27.824Z,14.20
2018-04-30T23:25:55.451Z,14.10
2018-04-30T23:28:23.069Z,14.10
2018-04-30T23:30:50.713Z,14.00
2018-04-30T23:33:18.341Z,14.00
2018-04-30T23:35:45.965Z,14.00
2018-04-30T23:38:14.392Z,14.00
2018-04-30T23:40:42.026Z,14.00
2018-04-30T23:43:10.435Z,13.90
2018-04-30T23:45:38.002Z,13.90
2018-04-30T23:48:05.572Z,13.90
2018-04-30T23:50:33.120Z,13.90
2018-04-30T23:53:00.687Z,13.90
2018-04-30T23:55:28.265Z,13.90
2018-04-30T23:57:55.830Z,14.00
